Time;durP1;ratioP1;P1;durP2;ratioP2;P2;SDS_P1;SDS_P2;PMS_P1;PMS_P2;Temp;Humidity;BMP_temperature;BMP_pressure;BME280_temperature;BME280_humidity;BME280_pressure;Samples;Min_cycle;Max_cycle;Signal;HPM_P1;HPM_P2
2023/09/26 00:00:21;;;;;;;17.17;6.17;;;;;;;12.32;73.43;101187.91;4874812;29;19924;-90
2023/09/26 00:02:50;;;;;;;15.02;6.30;;;;;;;12.56;73.21;101214.69;4881235;29;20052;-91
2023/09/26 00:05:23;;;;;;;10.50;5.57;;;;;;;12.95;73.24;101288.94;4873898;29;20067;-91
2023/09/26 00:07:51;;;;;;;14.23;6.82;;;;;;;12.26;73.51;101183.53;4857247;29;20047;-93
2023/09/26 00:10:18;;;;;;;15.55;5.88;;;;;;;12.70;73.36;101248.66;4870661;29;20071;-90
2023/09/26 00:12:45;;;;;;;15.68;6.53;;;;;;;12.53;73.49;101237.22;4870992;29;20044;-90
2023/09/26 00:15:12;;;;;;;16.63;6.97;;;;;;;12.60;73.52;101255.00;4877429;29;20048;-91
2023/09/26 00:17:46;;;;;;;14.93;6.47;;;;;;;12.61;73.07;101239.38;4890027;29;20060;-92
2023/09/26 00:20:17;;;;;;;15.00;6.68;;;;;;;12.15;72.70;101184.63;4865632;29;20055;-91
2023/09/26 00:22:45;;;;;;;14.77;6.72;;;;;;;12.70;73.58;101268.69;4878264;29;20112;-92
2023/09/26 00:25:11;;;;;;;19.00;7.30;;;;;;;12.09;72.88;101194.00;4862516;29;20067;-91
2023/09/26 00:27:37;;;;;;;17.67;7.73;;;;;;;12.19;72.85;101224.94;4865348;29;20378;-91
2023/09/26 00:30:05;;;;;;;11.65;6.93;;;;;;;12.48;72.64;101290.16;4882552;29;20092;-91
2023/09/26 00:32:32;;;;;;;19.50;8.27;;;;;;;11.99;72.81;101223.06;4882676;29;20069;-90
2023/09/26 00:35:01;;;;;;;19.10;7.35;;;;;;;12.20;72.90;101270.44;4888533;29;20065;-91
2023/09/26 00:37:31;;;;;;;17.98;7.40;;;;;;;12.35;73.21;101297.06;4913007;29;20041;-91
2023/09/26 00:39:57;;;;;;;24.10;7.47;;;;;;;11.85;72.42;101221.94;4882570;29;20044;-91
2023/09/26 00:42:23;;;;;;;16.75;7.30;;;;;;;11.71;72.66;101201.66;4897073;29;20025;-91
2023/09/26 00:44:50;;;;;;;24.67;7.40;;;;;;;11.58;73.07;101194.78;4882635;29;20089;-92
2023/09/26 00:47:17;;;;;;;12.75;6.90;;;;;;;12.17;72.94;101311.31;4877737;29;20143;-93
2023/09/26 00:49:43;;;;;;;14.32;6.82;;;;;;;11.48;73.02;101206.56;4871418;29;20052;-90
2023/09/26 00:52:10;;;;;;;21.00;7.05;;;;;;;11.59;73.33;101243.03;4861235;29;20044;-92
2023/09/26 00:54:38;;;;;;;25.10;7.23;;;;;;;11.72;73.79;101277.25;4862546;29;20057;-91
2023/09/26 00:57:05;;;;;;;17.25;7.43;;;;;;;11.75;73.90;101288.53;4890594;29;20044;-90
2023/09/26 00:59:32;;;;;;;12.40;7.15;;;;;;;11.43;73.79;101236.69;4874898;29;20032;-91
2023/09/26 01:02:00;;;;;;;13.57;7.22;;;;;;;11.47;73.87;101228.75;4865794;29;20053;-93
2023/09/26 01:04:27;;;;;;;15.93;6.72;;;;;;;11.93;74.15;101314.59;4864834;29;20041;-92
2023/09/26 01:06:54;;;;;;;14.93;7.40;;;;;;;11.77;74.17;101291.78;4863208;29;20084;-92
2023/09/26 01:09:22;;;;;;;18.33;8.23;;;;;;;11.81;74.29;101278.38;4862370;29;20534;-90
2023/09/26 01:11:49;;;;;;;20.52;8.07;;;;;;;11.83;74.61;101272.63;4859498;29;20101;-91
2023/09/26 01:14:16;;;;;;;16.27;7.50;;;;;;;11.91;74.50;101294.84;4856652;29;20052;-91
2023/09/26 01:16:42;;;;;;;16.50;7.73;;;;;;;11.46;73.81;101236.16;4879879;29;20041;-91
2023/09/26 01:19:08;;;;;;;15.95;7.82;;;;;;;11.17;74.02;101211.19;4866525;29;20141;-92
2023/09/26 01:21:35;;;;;;;20.08;8.68;;;;;;;11.62;74.10;101290.94;4868833;29;20049;-92
2023/09/26 01:24:01;;;;;;;39.83;8.43;;;;;;;11.37;74.05;101264.34;4886472;29;20077;-90
2023/09/26 01:26:36;;;;;;;20.45;7.28;;;;;;;10.93;73.87;101199.91;4848637;29;20049;-92
2023/09/26 01:29:06;;;;;;;17.95;7.20;;;;;;;10.96;74.77;101215.78;4843005;29;20057;-92
2023/09/26 01:31:37;;;;;;;15.00;7.60;;;;;;;11.18;75.61;101256.63;4843790;29;20045;-91
2023/09/26 01:34:04;;;;;;;16.58;7.70;;;;;;;11.20;75.66;101242.69;4806934;29;20548;-93
2023/09/26 01:36:31;;;;;;;18.60;7.78;;;;;;;11.23;75.15;101247.63;4809018;29;20043;-92
2023/09/26 01:38:58;;;;;;;22.45;8.18;;;;;;;11.46;75.77;101288.19;4840193;29;20054;-92
2023/09/26 01:41:26;;;;;;;;;;;;;;;11.73;75.09;101323.59;4827537;29;20105;-92
2023/09/26 01:43:53;;;;;;;17.60;8.13;;;;;;;11.29;75.28;101257.47;4843370;29;19909;-89
2023/09/26 01:46:20;;;;;;;23.75;8.57;;;;;;;11.41;74.05;101287.34;4850733;29;20085;-89
2023/09/26 01:48:47;;;;;;;16.17;8.90;;;;;;;10.81;74.64;101208.34;4844340;29;20053;-90
2023/09/26 01:51:14;;;;;;;14.82;9.02;;;;;;;11.08;75.38;101253.03;4834906;29;20037;-89
2023/09/26 01:53:42;;;;;;;24.63;8.73;;;;;;;11.11;74.80;101256.06;4821063;29;20076;-91
2023/09/26 01:56:08;;;;;;;13.93;7.78;;;;;;;11.23;74.74;101303.19;4803534;29;20055;-91
2023/09/26 01:58:34;;;;;;;19.33;9.35;;;;;;;10.83;74.65;101246.38;4843003;29;20030;-90
2023/09/26 02:01:04;;;;;;;26.67;8.52;;;;;;;11.18;75.01;101288.66;4847745;29;20058;-91
2023/09/26 02:03:31;;;;;;;19.35;10.05;;;;;;;10.71;75.27;101215.69;4899897;29;20072;-90
2023/09/26 02:06:12;;;;;;;20.73;9.52;;;;;;;11.04;74.60;101267.25;4903448;29;20040;-91
2023/09/26 02:08:56;;;;;;;19.13;8.93;;;;;;;11.14;74.39;101282.91;4874880;29;20036;-91
2023/09/26 02:11:24;;;;;;;22.30;8.40;;;;;;;11.31;73.69;101323.75;4901129;29;20035;-89
2023/09/26 02:14:00;;;;;;;17.85;7.72;;;;;;;10.93;73.92;101284.75;4887657;29;20036;-90
2023/09/26 02:16:27;;;;;;;17.23;9.02;;;;;;;10.36;74.45;101203.47;4872233;29;20055;-92
2023/09/26 02:18:54;;;;;;;20.48;8.90;;;;;;;10.58;73.90;101252.53;4857232;29;20036;-92
2023/09/26 02:21:20;;;;;;;20.02;9.00;;;;;;;10.57;74.36;101251.72;4871862;29;20036;-90
2023/09/26 02:23:48;;;;;;;20.65;8.85;;;;;;;10.27;74.44;101199.63;4886055;29;20055;-91
2023/09/26 02:26:19;;;;;;;21.38;9.02;;;;;;;10.69;74.36;101281.59;4906645;29;20041;-90
2023/09/26 02:28:46;;;;;;;22.42;9.32;;;;;;;10.44;75.36;101233.06;4906451;29;20076;-91
2023/09/26 02:31:16;;;;;;;;;;;;;;;11.11;75.79;101318.19;4875113;29;20040;-89
2023/09/26 02:33:43;;;;;;;15.07;8.57;;;;;;;10.60;75.35;101222.22;4907025;29;19927;-87
2023/09/26 02:36:09;;;;;;;19.83;8.48;;;;;;;11.09;77.71;101295.72;4874351;29;20057;-89
2023/09/26 02:38:35;;;;;;;18.50;8.55;;;;;;;11.09;76.64;101288.34;4874582;29;20044;-89
2023/09/26 02:41:02;;;;;;;17.00;8.05;;;;;;;11.37;76.78;101319.13;4889699;29;20025;-89
2023/09/26 02:43:30;;;;;;;16.67;8.10;;;;;;;10.96;75.96;101251.38;4886944;29;20040;-90
2023/09/26 02:45:56;;;;;;;28.90;9.35;;;;;;;11.08;76.66;101258.50;4879396;29;20092;-91
2023/09/26 02:48:27;;;;;;;19.75;9.27;;;;;;;10.80;77.73;101208.63;4865629;29;20044;-91
2023/09/26 02:51:08;;;;;;;19.40;9.52;;;;;;;11.31;77.71;101288.16;4835350;29;20068;-90
2023/09/26 02:53:39;;;;;;;31.08;10.85;;;;;;;11.21;78.06;101263.47;4896391;29;20036;-92
2023/09/26 02:56:09;;;;;;;24.92;11.25;;;;;;;11.06;77.38;101228.69;4882693;29;20050;-92
2023/09/26 02:58:42;;;;;;;18.02;9.88;;;;;;;11.44;76.16;101295.03;4883820;29;20102;-91
2023/09/26 03:01:22;;;;;;;13.63;9.32;;;;;;;11.21;74.76;101256.09;4885684;29;20048;-90
2023/09/26 03:03:48;;;;;;;17.92;8.65;;;;;;;11.34;72.68;101298.56;4873496;29;20049;-91
2023/09/26 03:06:14;;;;;;;20.63;8.57;;;;;;;10.59;72.58;101199.47;4859924;29;20123;-90
2023/09/26 03:08:40;;;;;;;21.33;9.97;;;;;;;11.41;73.95;101329.25;4889771;29;20069;-92
2023/09/26 03:11:12;;;;;;;17.30;9.15;;;;;;;11.20;73.43;101311.13;4858009;29;20160;-91
2023/09/26 03:13:38;;;;;;;21.85;9.10;;;;;;;10.83;73.66;101273.75;4886048;29;20050;-91
2023/09/26 03:16:08;;;;;;;35.97;10.85;;;;;;;10.77;74.23;101272.06;4871773;29;20044;-91
2023/09/26 03:18:38;;;;;;;22.45;10.88;;;;;;;10.61;74.68;101253.94;4883888;29;20049;-92
2023/09/26 03:21:05;;;;;;;23.35;11.20;;;;;;;10.41;74.22;101225.38;4870868;29;20037;-93
2023/09/26 03:23:33;;;;;;;26.80;11.18;;;;;;;10.86;74.29;101303.31;4860579;29;20037;-90
2023/09/26 03:26:17;;;;;;;22.80;11.85;;;;;;;10.88;75.11;101316.72;4893355;29;20048;-90
2023/09/26 03:28:46;;;;;;;25.58;11.07;;;;;;;11.09;74.65;101364.97;4869481;29;20044;-93
2023/09/26 03:31:16;;;;;;;30.77;10.63;;;;;;;11.00;74.49;101370.16;4874836;29;20036;-91
2023/09/26 03:33:42;;;;;;;22.38;11.00;;;;;;;10.51;74.65;101290.25;4875228;29;20128;-91
2023/09/26 03:36:13;;;;;;;25.13;10.63;;;;;;;10.69;74.81;101319.06;4913904;29;20088;-92
2023/09/26 03:38:43;;;;;;;30.85;11.20;;;;;;;10.45;75.00;101288.56;4895089;29;20064;-90
2023/09/26 03:41:45;;;;;;;19.63;10.90;;;;;;;10.68;75.93;101318.25;4863075;29;20048;-92
2023/09/26 03:44:13;;;;;;;22.98;12.05;;;;;;;10.77;76.04;101322.13;4830915;29;20061;-93
2023/09/26 03:46:52;;;;;;;35.63;12.15;;;;;;;10.73;75.64;101317.47;4825608;29;20081;-92
2023/09/26 03:49:19;;;;;;;26.65;11.32;;;;;;;10.45;75.77;101267.50;4847359;29;20028;-92
2023/09/26 03:51:58;;;;;;;24.23;11.00;;;;;;;10.80;75.68;101321.59;4861294;29;20049;-92
2023/09/26 03:54:24;;;;;;;29.08;11.77;;;;;;;11.11;76.15;101364.72;4847400;29;20025;-90
2023/09/26 03:57:01;;;;;;;22.77;11.82;;;;;;;10.47;76.19;101248.13;4860791;29;20128;-90
2023/09/26 03:59:29;;;;;;;27.48;10.98;;;;;;;10.96;76.04;101322.53;4844337;29;20547;-91
2023/09/26 04:01:57;;;;;;;21.40;11.18;;;;;;;10.57;75.85;101268.13;4840959;29;20054;-90
2023/09/26 04:04:24;;;;;;;23.98;10.82;;;;;;;10.63;76.14;101265.41;4854203;29;20038;-91
2023/09/26 04:06:50;;;;;;;26.60;11.40;;;;;;;11.34;76.87;101368.94;4838525;29;20056;-90
2023/09/26 04:09:17;;;;;;;23.05;11.23;;;;;;;10.79;75.38;101268.00;4838221;29;20057;-90
2023/09/26 04:11:44;;;;;;;23.77;10.90;;;;;;;11.03;75.55;101298.47;4843137;29;20074;-90
2023/09/26 04:14:11;;;;;;;30.88;11.02;;;;;;;11.07;76.36;101306.97;4833104;29;20050;-89
2023/09/26 04:17:22;;;;;;;18.92;11.57;;;;;;;10.78;77.61;101254.56;4833703;29;20057;-93
2023/09/26 04:19:38;;;;;;;26.98;12.73;;;;;;;11.33;78.02;101326.22;4886681;29;20049;-90
2023/09/26 04:22:05;;;;;;;23.55;11.98;;;;;;;11.44;78.31;101331.44;4888721;29;20428;-91
2023/09/26 04:24:32;;;;;;;20.02;11.98;;;;;;;11.27;78.38;101296.06;4863264;29;20037;-91
2023/09/26 04:27:09;;;;;;;30.55;12.52;;;;;;;11.18;78.23;101281.25;4878242;29;20057;-93
2023/09/26 04:29:44;;;;;;;27.73;12.77;;;;;;;11.71;78.97;101355.91;4877496;29;20088;-90
2023/09/26 04:32:11;;;;;;;24.70;14.00;;;;;;;11.47;79.14;101319.16;4893524;29;20048;-92
2023/09/26 04:34:37;;;;;;;30.90;14.13;;;;;;;11.67;79.34;101343.84;4877372;29;20041;-92
2023/09/26 04:37:04;;;;;;;36.95;14.70;;;;;;;11.54;79.44;101314.22;4880758;29;20044;-91
2023/09/26 04:39:30;;;;;;;25.23;14.68;;;;;;;12.05;79.11;101384.78;4872307;29;20037;-91
2023/09/26 04:42:07;;;;;;;29.75;15.93;;;;;;;11.76;78.72;101327.72;4905820;29;20029;-94
2023/09/26 04:44:38;;;;;;;40.05;18.15;;;;;;;12.14;78.63;101385.88;4907817;29;20064;-91
2023/09/26 04:47:04;;;;;;;36.92;18.60;;;;;;;11.72;78.06;101321.09;4903077;29;20064;-91
2023/09/26 04:49:35;;;;;;;47.83;20.63;;;;;;;11.55;77.48;101273.97;4897371;29;20045;-92
2023/09/26 04:52:02;;;;;;;46.35;23.30;;;;;;;12.02;77.59;101347.78;4875414;29;20056;-89
2023/09/26 04:54:29;;;;;;;54.60;28.23;;;;;;;11.87;77.13;101314.88;4872926;29;20062;-93
2023/09/26 04:56:55;;;;;;;48.78;30.08;;;;;;;11.73;76.98;101296.19;4858326;29;20045;-89
2023/09/26 04:59:24;;;;;;;51.55;33.15;;;;;;;11.84;76.99;101305.25;4899170;29;20041;-93
2023/09/26 05:01:50;;;;;;;56.47;31.75;;;;;;;12.23;76.70;101348.59;4881795;29;20092;-93
2023/09/26 05:04:32;;;;;;;54.35;32.55;;;;;;;12.53;76.78;101386.19;4886908;29;20025;-92
2023/09/26 05:07:09;;;;;;;64.25;34.13;;;;;;;12.11;76.31;101335.16;4873152;29;20454;-92
2023/09/26 05:09:40;;;;;;;57.38;34.28;;;;;;;11.92;76.56;101288.28;4876748;29;20045;-92
2023/09/26 05:12:07;;;;;;;56.30;34.03;;;;;;;12.19;76.49;101339.28;4890641;29;20131;-94
2023/09/26 05:14:33;;;;;;;63.72;34.35;;;;;;;12.10;76.43;101308.03;4874540;29;20087;-92
2023/09/26 05:17:00;;;;;;;63.75;32.97;;;;;;;12.14;75.85;101317.34;4861956;29;20048;-91
2023/09/26 05:19:26;;;;;;;60.87;32.47;;;;;;;12.78;75.98;101414.69;4868067;29;20044;-92
2023/09/26 05:21:55;;;;;;;53.08;28.80;;;;;;;12.57;75.74;101372.72;4890962;29;20506;-92
2023/09/26 05:24:22;;;;;;;48.60;28.40;;;;;;;12.19;75.77;101300.91;4858844;29;20140;-90
2023/09/26 05:26:49;;;;;;;53.20;26.08;;;;;;;12.67;75.33;101367.22;4844160;29;20071;-91
2023/09/26 05:29:20;;;;;;;50.95;26.15;;;;;;;12.20;75.01;101295.13;4863508;29;20040;-92
2023/09/26 05:31:56;;;;;;;39.95;23.42;;;;;;;12.51;74.74;101333.50;4893945;29;20069;-93
2023/09/26 05:34:22;;;;;;;41.08;22.33;;;;;;;12.68;75.17;101366.97;4877053;29;20140;-92
2023/09/26 05:36:49;;;;;;;39.17;22.42;;;;;;;12.82;75.08;101372.69;4875008;29;20073;-93
2023/09/26 05:39:16;;;;;;;44.35;23.20;;;;;;;12.75;75.16;101360.34;4894975;29;20055;-93
2023/09/26 05:41:44;;;;;;;40.87;21.57;;;;;;;12.98;75.25;101398.22;4881109;29;20471;-91
2023/09/26 05:44:17;;;;;;;45.00;20.45;;;;;;;12.38;75.27;101287.41;4898728;29;20047;-94
2023/09/26 05:46:47;;;;;;;39.05;19.63;;;;;;;12.60;74.94;101309.06;4870331;29;20045;-92
2023/09/26 05:49:15;;;;;;;43.08;19.13;;;;;;;12.69;74.79;101307.41;4907844;29;20023;-92
2023/09/26 05:51:41;;;;;;;98.23;20.27;;;;;;;12.96;74.55;101344.66;4883319;29;20040;-91
2023/09/26 05:54:09;;;;;;;46.67;17.63;;;;;;;13.04;74.10;101352.31;4899112;29;20045;-92
2023/09/26 05:56:37;;;;;;;41.15;16.52;;;;;;;13.06;73.97;101347.38;4895640;29;20041;-91
2023/09/26 05:59:04;;;;;;;49.72;17.85;;;;;;;13.28;74.21;101369.03;4882829;29;20041;-92
2023/09/26 06:01:30;;;;;;;32.03;16.17;;;;;;;13.15;74.14;101343.78;4895864;29;20041;-90
2023/09/26 06:03:56;;;;;;;40.75;17.25;;;;;;;13.36;73.94;101377.50;4891703;29;20050;-91
2023/09/26 06:06:22;;;;;;;31.50;16.70;;;;;;;13.23;74.09;101355.28;4886840;29;20523;-93
2023/09/26 06:09:13;;;;;;;32.33;16.83;;;;;;;13.69;73.86;101413.63;4880195;29;20067;-94
2023/09/26 06:12:16;;;;;;;34.92;16.48;;;;;;;13.39;73.93;101343.16;4879316;29;20037;-93
2023/09/26 06:14:47;;;;;;;30.88;14.90;;;;;;;13.63;73.02;101384.53;4837543;29;20046;-90
2023/09/26 06:17:14;;;;;;;23.73;14.80;;;;;;;13.51;72.83;101351.88;4818200;29;20042;-90
2023/09/26 06:19:46;;;;;;;39.17;15.67;;;;;;;13.78;72.86;101378.94;4814647;29;20113;-90
2023/09/26 06:22:13;;;;;;;25.48;12.90;;;;;;;13.79;71.02;101364.09;4803173;29;20128;-92
2023/09/26 06:24:45;;;;;;;17.92;13.05;;;;;;;13.46;71.25;101296.94;4836998;29;20612;-91
2023/09/26 06:27:19;;;;;;;22.27;12.50;;;;;;;14.02;71.53;101370.00;4819311;29;20078;-89
2023/09/26 06:30:22;;;;;;;18.52;11.93;;;;;;;13.73;71.19;101315.75;4841699;29;20069;-91
2023/09/26 07:01:56;;;;;;;18.90;8.15;;;;;;;14.65;67.13;101312.25;4933146;29;20044;-91
2023/09/26 07:05:40;;;;;;;;;;;;;;;;;;;;;
2023/09/26 07:15:14;;;;;;;14.30;5.90;;;;;;;15.47;65.56;101399.47;4943284;23;20527;-81
2023/09/26 07:17:41;;;;;;;33.13;6.30;;;;;;;15.62;64.94;101415.78;4890588;29;20084;-79
2023/09/26 07:20:13;;;;;;;12.43;4.85;;;;;;;15.63;63.93;101400.06;4892440;29;20550;-81
2023/09/26 07:22:40;;;;;;;17.23;6.28;;;;;;;15.54;63.52;101369.59;4897426;29;20084;-82
2023/09/26 07:25:08;;;;;;;15.75;4.70;;;;;;;15.72;63.73;101388.09;4900870;29;20049;-83
2023/09/26 07:27:35;;;;;;;15.00;5.07;;;;;;;15.91;62.68;101406.63;4874886;29;20515;-80
2023/09/26 07:30:01;;;;;;;;;;;;;;;15.86;62.31;101406.69;4894609;29;20051;-82
2023/09/26 07:32:30;;;;;;;32.80;5.32;;;;;;;15.62;62.32;101368.91;4899618;29;19919;-83
2023/09/26 07:34:57;;;;;;;7.57;4.30;;;;;;;15.98;62.64;101398.78;4895801;29;20048;-82
2023/09/26 07:37:23;;;;;;;7.03;4.10;;;;;;;15.92;62.09;101387.00;4900690;29;20036;-81
2023/09/26 07:39:51;;;;;;;26.97;5.40;;;;;;;15.61;62.38;101320.41;4899214;29;20542;-80
2023/09/26 07:42:19;;;;;;;19.17;4.82;;;;;;;15.95;61.32;101371.81;4894661;29;20041;-87
2023/09/26 07:44:46;;;;;;;7.78;4.40;;;;;;;16.14;60.80;101388.34;4885724;29;20047;-82
2023/09/26 07:47:12;;;;;;;9.10;4.07;;;;;;;16.31;61.45;101402.41;4894792;29;20036;-86
2023/09/26 07:49:40;;;;;;;7.05;4.18;;;;;;;16.39;61.90;101370.53;4897170;29;20040;-85
2023/09/26 07:52:06;;;;;;;12.45;4.32;;;;;;;16.47;60.21;101380.91;4896448;29;20051;-85
2023/09/26 07:54:33;;;;;;;14.02;4.68;;;;;;;16.56;59.12;101381.88;4891532;29;20043;-82
2023/09/26 07:56:59;;;;;;;19.42;4.50;;;;;;;16.49;62.61;101367.63;4897945;29;20041;-84
2023/09/26 07:59:25;;;;;;;9.77;4.13;;;;;;;16.70;62.95;101347.94;4895832;29;20041;-82
2023/09/26 08:01:51;;;;;;;16.75;5.00;;;;;;;16.96;59.25;101381.47;4899414;29;20032;-83
2023/09/26 08:04:17;;;;;;;13.27;5.00;;;;;;;16.81;59.52;101341.13;4897403;29;20040;-83
2023/09/26 08:06:45;;;;;;;14.03;4.23;;;;;;;16.90;58.03;101364.16;4907807;29;20041;-84
2023/09/26 08:09:12;;;;;;;15.63;4.80;;;;;;;17.06;58.53;101384.03;4900588;29;20415;-84
2023/09/26 08:11:40;;;;;;;6.70;4.23;;;;;;;17.09;57.25;101403.56;4885441;29;20036;-83
2023/09/26 08:14:08;;;;;;;10.77;4.13;;;;;;;17.14;56.57;101397.13;4893463;29;20289;-83
2023/09/26 08:16:34;;;;;;;11.55;4.80;;;;;;;17.13;57.20;101401.03;4900173;29;20112;-87
2023/09/26 08:19:00;;;;;;;7.73;4.37;;;;;;;17.06;56.83;101372.97;4895636;29;20050;-84
2023/09/26 08:21:29;;;;;;;9.95;4.78;;;;;;;17.00;56.39;101377.78;4896325;29;20044;-85
2023/09/26 08:23:56;;;;;;;9.00;4.50;;;;;;;17.36;57.93;101391.69;4901383;29;20530;-84
2023/09/26 08:26:22;;;;;;;;;;;;;;;17.61;58.04;101383.97;4895347;29;20041;-82
2023/09/26 08:28:48;;;;;;;20.03;6.93;;;;;;;17.24;55.67;101335.28;4896843;29;20286;-83
2023/09/26 08:31:15;;;;;;;24.13;5.03;;;;;;;17.32;55.79;101367.75;4905193;29;20293;-87
2023/09/26 08:33:43;;;;;;;12.48;4.65;;;;;;;17.45;55.44;101366.06;4863332;29;20027;-81
2023/09/26 08:36:27;;;;;;;46.30;9.23;;;;;;;17.48;55.70;101366.31;4895873;29;20107;-84
2023/09/26 08:38:55;;;;;;;23.27;6.28;;;;;;;17.57;56.01;101364.44;4890801;29;20041;-82
2023/09/26 08:41:21;;;;;;;25.95;5.43;;;;;;;17.75;55.49;101375.69;4872800;29;20051;-82
2023/09/26 08:43:47;;;;;;;23.37;5.00;;;;;;;17.84;54.06;101368.28;4893682;29;20049;-83
2023/09/26 08:46:13;;;;;;;10.30;4.38;;;;;;;17.60;55.55;101316.78;4890749;29;20056;-87
2023/09/26 08:48:41;;;;;;;16.07;5.43;;;;;;;17.78;55.89;101325.25;4903243;29;20080;-83
2023/09/26 08:51:08;;;;;;;12.63;4.85;;;;;;;17.97;55.95;101327.88;4907313;29;20092;-84
2023/09/26 08:53:34;;;;;;;7.20;4.43;;;;;;;17.92;55.11;101323.28;4893473;29;20119;-87
2023/09/26 08:56:01;;;;;;;24.80;4.68;;;;;;;17.96;54.05;101317.94;4899807;29;20048;-84
2023/09/26 08:58:32;;;;;;;16.10;4.85;;;;;;;18.27;56.43;101357.56;4908996;29;20037;-84
2023/09/26 09:01:01;;;;;;;9.77;3.67;;;;;;;18.31;56.53;101338.41;4895913;29;20048;-82
2023/09/26 09:03:28;;;;;;;6.85;3.85;;;;;;;18.03;52.26;101285.09;4900080;29;20048;-83
2023/09/26 09:05:54;;;;;;;16.42;4.50;;;;;;;18.50;54.61;101354.78;4904466;29;20099;-83
2023/09/26 09:08:22;;;;;;;17.23;3.95;;;;;;;18.61;54.15;101352.56;4899004;29;20136;-83
2023/09/26 09:10:56;;;;;;;7.78;3.63;;;;;;;18.66;53.57;101356.03;4908974;29;20471;-83
2023/09/26 09:13:31;;;;;;;11.82;4.32;;;;;;;18.51;53.65;101351.72;4906844;29;20041;-83
2023/09/26 09:16:05;;;;;;;11.70;4.68;;;;;;;18.47;52.38;101356.22;4907651;29;20104;-83
2023/09/26 09:18:39;;;;;;;8.45;4.65;;;;;;;18.17;51.06;101321.00;4905312;29;20044;-83
2023/09/26 09:21:30;;;;;;;9.88;4.28;;;;;;;18.36;51.27;101363.16;4891549;29;20040;-83
2023/09/26 09:24:08;;;;;;;8.98;4.28;;;;;;;18.39;51.39;101362.53;4888782;29;20045;-82
2023/09/26 09:26:36;;;;;;;19.05;5.10;;;;;;;18.40;51.09;101357.81;4862704;29;20095;-82
2023/09/26 09:29:20;;;;;;;8.70;4.78;;;;;;;18.39;51.17;101345.94;4853734;29;20055;-84
2023/09/26 09:31:47;;;;;;;11.57;5.05;;;;;;;18.68;54.31;101345.44;4875139;29;20056;-82
2023/09/26 09:34:15;;;;;;;9.82;4.45;;;;;;;18.82;50.38;101341.78;4899498;29;20128;-83
2023/09/26 09:36:44;;;;;;;10.15;4.72;;;;;;;18.77;52.55;101321.41;4903912;29;20055;-83
2023/09/26 09:39:10;;;;;;;15.10;4.60;;;;;;;19.11;50.11;101347.63;4887085;29;20415;-86
2023/09/26 09:41:37;;;;;;;8.15;4.55;;;;;;;19.04;51.22;101308.47;4886698;29;20056;-84
2023/09/26 09:44:04;;;;;;;10.90;4.38;;;;;;;19.43;50.95;101342.78;4908927;29;20037;-85
2023/09/26 09:46:38;;;;;;;11.48;4.32;;;;;;;19.34;50.03;101315.06;4896462;29;20041;-84
2023/09/26 09:49:13;;;;;;;9.68;4.32;;;;;;;19.37;48.95;101324.66;4893688;29;20064;-83
2023/09/26 09:51:42;;;;;;;8.63;4.53;;;;;;;19.38;48.64;101343.78;4878833;29;20076;-83
2023/09/26 09:54:17;;;;;;;25.65;4.93;;;;;;;19.23;49.00;101308.16;4893319;29;20040;-85
2023/09/26 09:56:48;;;;;;;11.35;4.10;;;;;;;19.63;48.75;101333.88;4889830;29;20414;-83
2023/09/26 09:59:16;;;;;;;12.60;4.80;;;;;;;19.49;48.21;101319.31;4864209;29;20049;-84
2023/09/26 10:01:45;;;;;;;10.43;5.68;;;;;;;19.29;46.66;101304.09;4900084;29;20056;-84
2023/09/26 10:04:15;;;;;;;9.18;5.15;;;;;;;19.29;47.46;101293.00;4895287;29;20040;-84
2023/09/26 10:06:42;;;;;;;20.02;4.97;;;;;;;19.54;50.15;101330.28;4888396;29;20072;-84
2023/09/26 10:09:10;;;;;;;11.80;4.25;;;;;;;19.48;47.45;101301.84;4904831;29;20051;-83
2023/09/26 10:11:38;;;;;;;7.88;4.43;;;;;;;19.11;46.08;101266.41;4906023;29;20083;-86
2023/09/26 10:14:10;;;;;;;9.00;4.93;;;;;;;19.25;47.02;101311.44;4912541;29;20056;-85
2023/09/26 10:16:39;;;;;;;16.88;5.03;;;;;;;19.09;47.13;101297.22;4902232;29;20081;-87
2023/09/26 10:19:07;;;;;;;10.73;4.43;;;;;;;19.19;47.56;101302.47;4913418;29;20044;-84
2023/09/26 10:21:35;;;;;;;12.38;4.72;;;;;;;19.15;49.80;101281.25;4906199;29;20052;-84
2023/09/26 10:24:08;;;;;;;6.85;4.18;;;;;;;19.69;49.48;101318.72;4890728;29;20100;-85
2023/09/26 10:26:49;;;;;;;13.95;4.93;;;;;;;19.71;46.65;101301.75;4891553;29;20517;-85
2023/09/26 10:29:42;;;;;;;14.80;4.80;;;;;;;19.24;46.06;101276.56;4913215;29;20080;-85
2023/09/26 10:32:10;;;;;;;12.13;4.18;;;;;;;19.05;47.74;101253.84;4910335;29;20049;-86
2023/09/26 10:34:37;;;;;;;9.88;4.75;;;;;;;19.07;46.06;101259.84;4908738;29;20040;-86
2023/09/26 10:37:07;;;;;;;11.50;5.03;;;;;;;19.45;47.39;101301.69;4907411;29;20064;-86
2023/09/26 10:39:44;;;;;;;18.02;5.28;;;;;;;19.44;44.58;101292.56;4902779;29;20052;-88
2023/09/26 10:42:15;;;;;;;7.80;4.80;;;;;;;19.37;44.81;101297.78;4891663;29;20083;-87
2023/09/26 10:44:45;;;;;;;16.65;4.70;;;;;;;19.32;47.35;101284.06;4894327;29;20112;-88
2023/09/26 10:47:16;;;;;;;8.40;4.57;;;;;;;19.37;48.05;101256.19;4892628;29;20041;-89
2023/09/26 10:49:43;;;;;;;13.32;4.75;;;;;;;19.40;48.67;101197.28;4893850;29;20051;-86
2023/09/26 10:52:12;;;;;;;13.98;5.07;;;;;;;19.83;47.94;101237.25;4908805;29;20131;-86
2023/09/26 10:54:52;;;;;;;13.25;4.60;;;;;;;20.16;45.74;101284.72;4908130;29;20047;-85
2023/09/26 10:57:20;;;;;;;65.45;7.63;;;;;;;19.94;44.87;101267.13;4891892;29;20048;-86
2023/09/26 10:59:46;;;;;;;;;;;;;;;19.95;44.12;101279.84;4903227;29;20044;-86
2023/09/26 11:02:12;;;;;;;10.45;5.03;;;;;;;19.59;42.85;101234.94;4904550;29;20509;-87
2023/09/26 11:04:41;;;;;;;16.10;5.87;;;;;;;19.89;43.45;101281.16;4888579;29;20047;-86
2023/09/26 11:07:12;;;;;;;16.42;5.68;;;;;;;19.81;44.37;101247.88;4872871;29;20044;-86
2023/09/26 11:09:40;;;;;;;30.85;5.43;;;;;;;19.85;43.23;101259.94;4909654;29;20127;-85
2023/09/26 11:12:06;;;;;;;22.70;5.60;;;;;;;19.57;44.04;101215.88;4900383;29;20048;-85
2023/09/26 11:14:32;;;;;;;28.25;5.20;;;;;;;19.66;45.46;101215.88;4889969;29;20096;-86
2023/09/26 11:16:59;;;;;;;12.98;4.95;;;;;;;19.98;41.95;101247.84;4906146;29;20052;-86
2023/09/26 11:19:28;;;;;;;18.83;5.47;;;;;;;19.79;43.95;101225.97;4901639;29;20071;-85
2023/09/26 11:21:55;;;;;;;17.63;7.85;;;;;;;19.96;43.70;101252.91;4886020;29;20036;-87
2023/09/26 11:24:27;;;;;;;21.45;8.73;;;;;;;19.78;42.96;101238.22;4903206;29;20491;-87
2023/09/26 11:27:01;;;;;;;28.27;16.13;;;;;;;20.06;43.14;101262.84;4909971;29;20351;-86
2023/09/26 11:29:28;;;;;;;15.60;6.68;;;;;;;19.99;42.16;101256.97;4904546;29;20063;-85
2023/09/26 11:31:56;;;;;;;9.55;5.10;;;;;;;19.86;41.41;101248.50;4887267;29;20044;-86
2023/09/26 11:34:24;;;;;;;10.68;4.97;;;;;;;19.88;41.29;101253.75;4907276;29;20080;-87
2023/09/26 11:36:51;;;;;;;20.88;7.70;;;;;;;20.17;45.50;101250.25;4903811;29;20044;-85
2023/09/26 11:39:18;;;;;;;29.70;7.15;;;;;;;20.22;44.73;101213.97;4869910;29;20057;-86
2023/09/26 11:41:46;;;;;;;13.32;6.05;;;;;;;20.32;43.59;101202.47;4902429;29;20120;-85
2023/09/26 11:44:14;;;;;;;22.52;6.88;;;;;;;20.26;43.71;101187.16;4901436;29;20049;-84
2023/09/26 11:46:44;;;;;;;10.07;4.80;;;;;;;20.57;41.00;101224.97;4884836;29;20083;-85
2023/09/26 11:49:15;;;;;;;36.13;6.43;;;;;;;20.72;42.70;101231.94;4867761;29;20049;-85
2023/09/26 11:51:42;;;;;;;11.73;4.93;;;;;;;20.66;41.13;101217.41;4856055;29;20053;-83
2023/09/26 11:54:09;;;;;;;15.63;4.43;;;;;;;20.83;42.00;101228.44;4887234;29;20040;-86
2023/09/26 11:56:42;;;;;;;20.92;6.15;;;;;;;20.75;41.65;101228.47;4887577;29;20057;-85
2023/09/26 11:59:11;;;;;;;13.27;5.28;;;;;;;20.64;42.79;101217.75;4852885;29;20060;-87
2023/09/26 12:01:41;;;;;;;11.30;4.60;;;;;;;20.80;42.35;101240.22;4865962;29;20047;-84
2023/09/26 12:04:14;;;;;;;18.20;5.20;;;;;;;20.64;41.37;101206.63;4879915;29;20036;-86
2023/09/26 12:07:17;;;;;;;18.35;5.40;;;;;;;20.86;43.31;101224.16;4948536;23;20059;-85